sensor_id;sensor_type;location;lat;lon;timestamp;temperature;humidity
9215;DHT22;4642;51.364;6.788;2023-03-26T00:01:29;8.20;99.90
9215;DHT22;4642;51.364;6.788;2023-03-26T00:03:58;8.20;99.90
9215;DHT22;4642;51.364;6.788;2023-03-26T00:06:31;8.20;99.90
9215;DHT22;4642;51.364;6.788;2023-03-26T00:08:59;8.20;99.90
9215;DHT22;4642;51.364;6.788;2023-03-26T00:11:27;8.30;99.90
9215;DHT22;4642;51.364;6.788;2023-03-26T00:13:53;8.30;99.90
9215;DHT22;4642;51.364;6.788;2023-03-26T00:16:23;8.20;99.90
9215;DHT22;4642;51.364;6.788;2023-03-26T00:18:49;8.20;99.90
9215;DHT22;4642;51.364;6.788;2023-03-26T00:21:17;8.30;99.90
9215;DHT22;4642;51.364;6.788;2023-03-26T00:23:45;8.20;99.90
9215;DHT22;4642;51.364;6.788;2023-03-26T00:26:11;8.20;99.90
9215;DHT22;4642;51.364;6.788;2023-03-26T00:28:39;8.20;99.90
9215;DHT22;4642;51.364;6.788;2023-03-26T00:31:08;8.20;99.90
9215;DHT22;4642;51.364;6.788;2023-03-26T00:33:34;8.20;99.90
9215;DHT22;4642;51.364;6.788;2023-03-26T00:36:10;8.20;99.90
9215;DHT22;4642;51.364;6.788;2023-03-26T00:38:39;8.20;99.90
9215;DHT22;4642;51.364;6.788;2023-03-26T00:41:06;8.20;99.90
9215;DHT22;4642;51.364;6.788;2023-03-26T00:43:41;8.20;99.90
9215;DHT22;4642;51.364;6.788;2023-03-26T00:46:07;8.20;99.90
9215;DHT22;4642;51.364;6.788;2023-03-26T00:48:33;8.20;99.90
9215;DHT22;4642;51.364;6.788;2023-03-26T00:51:03;8.20;99.90
9215;DHT22;4642;51.364;6.788;2023-03-26T00:53:29;8.20;99.90
9215;DHT22;4642;51.364;6.788;2023-03-26T00:55:54;8.20;99.90
9215;DHT22;4642;51.364;6.788;2023-03-26T00:58:25;8.20;99.90
9215;DHT22;4642;51.364;6.788;2023-03-26T01:00:54;8.20;99.90
9215;DHT22;4642;51.364;6.788;2023-03-26T01:03:25;8.20;99.90
9215;DHT22;4642;51.364;6.788;2023-03-26T01:05:58;8.20;99.90
9215;DHT22;4642;51.364;6.788;2023-03-26T01:08:38;8.20;99.90
9215;DHT22;4642;51.364;6.788;2023-03-26T01:11:08;8.20;99.90
9215;DHT22;4642;51.364;6.788;2023-03-26T01:13:40;8.10;99.90
9215;DHT22;4642;51.364;6.788;2023-03-26T01:16:15;8.10;99.90
9215;DHT22;4642;51.364;6.788;2023-03-26T01:18:45;8.10;99.90
9215;DHT22;4642;51.364;6.788;2023-03-26T01:21:11;8.10;99.90
9215;DHT22;4642;51.364;6.788;2023-03-26T01:23:45;8.10;99.90
9215;DHT22;4642;51.364;6.788;2023-03-26T01:26:41;8.10;99.90
9215;DHT22;4642;51.364;6.788;2023-03-26T01:32:05;8.00;99.90
9215;DHT22;4642;51.364;6.788;2023-03-26T01:34:51;8.00;99.90
9215;DHT22;4642;51.364;6.788;2023-03-26T01:37:44;8.00;99.90
9215;DHT22;4642;51.364;6.788;2023-03-26T01:40:23;8.10;99.90
9215;DHT22;4642;51.364;6.788;2023-03-26T01:42:55;8.00;99.90
9215;DHT22;4642;51.364;6.788;2023-03-26T01:45:27;8.00;99.90
9215;DHT22;4642;51.364;6.788;2023-03-26T01:47:55;8.00;99.90
9215;DHT22;4642;51.364;6.788;2023-03-26T01:50:21;7.90;99.90
9215;DHT22;4642;51.364;6.788;2023-03-26T01:52:46;7.90;99.90
9215;DHT22;4642;51.364;6.788;2023-03-26T01:55:12;7.90;99.90
9215;DHT22;4642;51.364;6.788;2023-03-26T01:57:59;7.90;99.90
9215;DHT22;4642;51.364;6.788;2023-03-26T02:00:45;7.90;99.90
9215;DHT22;4642;51.364;6.788;2023-03-26T02:03:24;7.80;99.90
9215;DHT22;4642;51.364;6.788;2023-03-26T02:09:03;7.80;99.90
9215;DHT22;4642;51.364;6.788;2023-03-26T02:11:30;7.70;99.90
9215;DHT22;4642;51.364;6.788;2023-03-26T02:13:57;7.70;99.90
9215;DHT22;4642;51.364;6.788;2023-03-26T02:16:22;7.70;99.90
9215;DHT22;4642;51.364;6.788;2023-03-26T02:18:49;7.70;99.90
9215;DHT22;4642;51.364;6.788;2023-03-26T02:21:21;7.70;99.90
9215;DHT22;4642;51.364;6.788;2023-03-26T02:23:53;7.80;99.90
9215;DHT22;4642;51.364;6.788;2023-03-26T02:26:27;7.70;99.90
9215;DHT22;4642;51.364;6.788;2023-03-26T02:28:53;7.70;99.90
9215;DHT22;4642;51.364;6.788;2023-03-26T02:31:18;7.70;99.90
9215;DHT22;4642;51.364;6.788;2023-03-26T02:33:44;7.70;99.90
9215;DHT22;4642;51.364;6.788;2023-03-26T02:36:12;7.70;99.90
9215;DHT22;4642;51.364;6.788;2023-03-26T02:38:39;7.70;99.90
9215;DHT22;4642;51.364;6.788;2023-03-26T02:41:06;7.70;99.90
9215;DHT22;4642;51.364;6.788;2023-03-26T02:43:32;7.70;99.90
9215;DHT22;4642;51.364;6.788;2023-03-26T02:45:57;7.70;99.90
9215;DHT22;4642;51.364;6.788;2023-03-26T02:48:23;7.70;99.90
9215;DHT22;4642;51.364;6.788;2023-03-26T02:50:49;7.70;99.90
9215;DHT22;4642;51.364;6.788;2023-03-26T02:53:21;7.70;99.90
9215;DHT22;4642;51.364;6.788;2023-03-26T02:55:48;7.70;99.90
9215;DHT22;4642;51.364;6.788;2023-03-26T02:58:14;7.70;99.90
9215;DHT22;4642;51.364;6.788;2023-03-26T03:00:45;7.70;99.90
9215;DHT22;4642;51.364;6.788;2023-03-26T03:03:11;7.70;99.90
9215;DHT22;4642;51.364;6.788;2023-03-26T03:05:37;7.70;99.90
9215;DHT22;4642;51.364;6.788;2023-03-26T03:08:04;7.60;99.90
9215;DHT22;4642;51.364;6.788;2023-03-26T03:10:30;7.50;99.90
9215;DHT22;4642;51.364;6.788;2023-03-26T03:12:59;7.50;99.90
9215;DHT22;4642;51.364;6.788;2023-03-26T03:15:24;7.50;99.90
9215;DHT22;4642;51.364;6.788;2023-03-26T03:17:50;7.40;99.90
9215;DHT22;4642;51.364;6.788;2023-03-26T03:20:16;7.30;99.90
9215;DHT22;4642;51.364;6.788;2023-03-26T03:22:42;7.30;99.90
9215;DHT22;4642;51.364;6.788;2023-03-26T03:25:08;7.30;99.90
9215;DHT22;4642;51.364;6.788;2023-03-26T03:27:39;7.30;99.90
9215;DHT22;4642;51.364;6.788;2023-03-26T03:30:05;7.20;99.90
9215;DHT22;4642;51.364;6.788;2023-03-26T03:32:31;7.20;99.90
9215;DHT22;4642;51.364;6.788;2023-03-26T03:34:56;7.10;99.90
9215;DHT22;4642;51.364;6.788;2023-03-26T03:37:22;7.10;99.90
9215;DHT22;4642;51.364;6.788;2023-03-26T03:39:49;7.10;99.90
9215;DHT22;4642;51.364;6.788;2023-03-26T03:42:14;7.00;99.90
9215;DHT22;4642;51.364;6.788;2023-03-26T03:44:40;7.00;99.90
9215;DHT22;4642;51.364;6.788;2023-03-26T03:47:05;7.00;99.90
9215;DHT22;4642;51.364;6.788;2023-03-26T03:49:31;7.00;99.90
9215;DHT22;4642;51.364;6.788;2023-03-26T03:51:56;7.00;99.90
9215;DHT22;4642;51.364;6.788;2023-03-26T03:54:23;6.90;99.90
9215;DHT22;4642;51.364;6.788;2023-03-26T03:56:48;6.90;99.90
9215;DHT22;4642;51.364;6.788;2023-03-26T03:59:14;6.90;99.90
9215;DHT22;4642;51.364;6.788;2023-03-26T04:01:40;6.90;99.90
9215;DHT22;4642;51.364;6.788;2023-03-26T04:04:08;6.90;99.90
9215;DHT22;4642;51.364;6.788;2023-03-26T04:06:33;6.90;99.90
9215;DHT22;4642;51.364;6.788;2023-03-26T04:08:59;6.90;99.90
9215;DHT22;4642;51.364;6.788;2023-03-26T04:11:24;6.90;99.90
9215;DHT22;4642;51.364;6.788;2023-03-26T04:13:50;6.90;99.90
9215;DHT22;4642;51.364;6.788;2023-03-26T04:16:17;6.90;99.90
9215;DHT22;4642;51.364;6.788;2023-03-26T04:18:43;6.90;99.90
9215;DHT22;4642;51.364;6.788;2023-03-26T04:21:10;7.00;99.90
9215;DHT22;4642;51.364;6.788;2023-03-26T04:23:37;6.90;99.90
9215;DHT22;4642;51.364;6.788;2023-03-26T04:26:04;7.00;99.90
9215;DHT22;4642;51.364;6.788;2023-03-26T04:28:54;7.00;99.90
9215;DHT22;4642;51.364;6.788;2023-03-26T04:31:23;7.00;99.90
9215;DHT22;4642;51.364;6.788;2023-03-26T04:33:54;7.00;99.90
9215;DHT22;4642;51.364;6.788;2023-03-26T04:36:28;7.00;99.90
9215;DHT22;4642;51.364;6.788;2023-03-26T04:38:56;7.00;99.90
9215;DHT22;4642;51.364;6.788;2023-03-26T04:41:27;7.10;99.90
9215;DHT22;4642;51.364;6.788;2023-03-26T04:43:53;7.10;99.90
9215;DHT22;4642;51.364;6.788;2023-03-26T04:46:20;7.10;99.90
9215;DHT22;4642;51.364;6.788;2023-03-26T04:48:49;7.10;99.90
9215;DHT22;4642;51.364;6.788;2023-03-26T04:51:16;7.10;99.90
9215;DHT22;4642;51.364;6.788;2023-03-26T04:53:49;7.10;99.90
9215;DHT22;4642;51.364;6.788;2023-03-26T04:59:25;7.10;99.90
9215;DHT22;4642;51.364;6.788;2023-03-26T05:01:57;7.20;99.90
9215;DHT22;4642;51.364;6.788;2023-03-26T05:04:24;7.20;99.90
9215;DHT22;4642;51.364;6.788;2023-03-26T05:06:54;7.20;99.90
9215;DHT22;4642;51.364;6.788;2023-03-26T05:09:21;7.20;99.90
9215;DHT22;4642;51.364;6.788;2023-03-26T05:11:46;7.20;99.90
9215;DHT22;4642;51.364;6.788;2023-03-26T05:14:13;7.20;99.90
9215;DHT22;4642;51.364;6.788;2023-03-26T05:16:38;7.20;99.90
9215;DHT22;4642;51.364;6.788;2023-03-26T05:19:05;7.20;99.90
9215;DHT22;4642;51.364;6.788;2023-03-26T05:21:31;7.20;99.90
9215;DHT22;4642;51.364;6.788;2023-03-26T05:23:56;7.20;99.90
9215;DHT22;4642;51.364;6.788;2023-03-26T05:26:22;7.20;99.90
9215;DHT22;4642;51.364;6.788;2023-03-26T05:28:48;7.20;99.90
9215;DHT22;4642;51.364;6.788;2023-03-26T05:31:13;7.20;99.90
9215;DHT22;4642;51.364;6.788;2023-03-26T05:33:41;7.20;99.90
9215;DHT22;4642;51.364;6.788;2023-03-26T05:36:09;7.20;99.90
9215;DHT22;4642;51.364;6.788;2023-03-26T05:38:37;7.30;99.90
9215;DHT22;4642;51.364;6.788;2023-03-26T05:41:05;7.30;99.90
9215;DHT22;4642;51.364;6.788;2023-03-26T05:43:32;7.30;99.90
9215;DHT22;4642;51.364;6.788;2023-03-26T05:45:58;7.30;99.90
9215;DHT22;4642;51.364;6.788;2023-03-26T05:48:24;7.30;99.90
9215;DHT22;4642;51.364;6.788;2023-03-26T05:50:52;7.20;99.90
9215;DHT22;4642;51.364;6.788;2023-03-26T05:53:18;7.30;99.90
9215;DHT22;4642;51.364;6.788;2023-03-26T05:55:45;7.30;99.90
9215;DHT22;4642;51.364;6.788;2023-03-26T05:58:12;7.30;99.90
9215;DHT22;4642;51.364;6.788;2023-03-26T06:00:38;7.30;99.90
9215;DHT22;4642;51.364;6.788;2023-03-26T06:03:04;7.30;99.90
9215;DHT22;4642;51.364;6.788;2023-03-26T06:05:36;7.30;99.90
9215;DHT22;4642;51.364;6.788;2023-03-26T06:08:02;7.40;99.90
9215;DHT22;4642;51.364;6.788;2023-03-26T06:10:28;7.40;99.90
9215;DHT22;4642;51.364;6.788;2023-03-26T06:12:54;7.40;99.90
9215;DHT22;4642;51.364;6.788;2023-03-26T06:15:20;7.40;99.90
9215;DHT22;4642;51.364;6.788;2023-03-26T06:17:46;7.40;99.90
9215;DHT22;4642;51.364;6.788;2023-03-26T06:20:12;7.50;99.90
9215;DHT22;4642;51.364;6.788;2023-03-26T06:22:37;7.50;99.90
9215;DHT22;4642;51.364;6.788;2023-03-26T06:25:04;7.50;99.90
9215;DHT22;4642;51.364;6.788;2023-03-26T06:27:29;7.50;99.90
9215;DHT22;4642;51.364;6.788;2023-03-26T06:29:55;7.50;99.90
9215;DHT22;4642;51.364;6.788;2023-03-26T06:32:21;7.50;99.90
9215;DHT22;4642;51.364;6.788;2023-03-26T06:34:46;7.50;99.90
9215;DHT22;4642;51.364;6.788;2023-03-26T06:37:12;7.50;99.90
9215;DHT22;4642;51.364;6.788;2023-03-26T06:39:37;7.60;99.90
9215;DHT22;4642;51.364;6.788;2023-03-26T06:42:03;7.60;99.90
9215;DHT22;4642;51.364;6.788;2023-03-26T06:44:28;7.60;99.90
9215;DHT22;4642;51.364;6.788;2023-03-26T06:46:54;7.60;99.90
9215;DHT22;4642;51.364;6.788;2023-03-26T06:49:20;7.60;99.90
9215;DHT22;4642;51.364;6.788;2023-03-26T06:51:45;7.70;99.90
9215;DHT22;4642;51.364;6.788;2023-03-26T06:54:12;7.70;99.90
9215;DHT22;4642;51.364;6.788;2023-03-26T06:56:38;7.70;99.90
9215;DHT22;4642;51.364;6.788;2023-03-26T06:59:03;7.70;99.90
9215;DHT22;4642;51.364;6.788;2023-03-26T07:01:29;7.70;99.90
9215;DHT22;4642;51.364;6.788;2023-03-26T07:03:54;7.70;99.90
9215;DHT22;4642;51.364;6.788;2023-03-26T07:06:20;7.70;99.90
9215;DHT22;4642;51.364;6.788;2023-03-26T07:08:46;7.70;99.90
9215;DHT22;4642;51.364;6.788;2023-03-26T07:11:12;7.70;99.90
9215;DHT22;4642;51.364;6.788;2023-03-26T07:13:37;7.70;99.90
9215;DHT22;4642;51.364;6.788;2023-03-26T07:16:05;7.80;99.90
9215;DHT22;4642;51.364;6.788;2023-03-26T07:18:31;7.80;99.90
9215;DHT22;4642;51.364;6.788;2023-03-26T07:20:56;7.80;99.90
9215;DHT22;4642;51.364;6.788;2023-03-26T07:23:22;7.80;99.90
9215;DHT22;4642;51.364;6.788;2023-03-26T07:25:48;7.90;99.90
9215;DHT22;4642;51.364;6.788;2023-03-26T07:28:59;7.90;99.90
9215;DHT22;4642;51.364;6.788;2023-03-26T07:34:44;7.90;99.90
9215;DHT22;4642;51.364;6.788;2023-03-26T07:44:56;8.00;99.90
9215;DHT22;4642;51.364;6.788;2023-03-26T07:47:32;8.00;99.90
9215;DHT22;4642;51.364;6.788;2023-03-26T07:49:58;8.10;99.90
9215;DHT22;4642;51.364;6.788;2023-03-26T07:52:25;8.10;99.90
9215;DHT22;4642;51.364;6.788;2023-03-26T07:54:51;8.10;99.90
9215;DHT22;4642;51.364;6.788;2023-03-26T08:00:28;8.20;99.90
9215;DHT22;4642;51.364;6.788;2023-03-26T08:05:39;8.20;99.90
9215;DHT22;4642;51.364;6.788;2023-03-26T08:08:27;8.30;99.90
9215;DHT22;4642;51.364;6.788;2023-03-26T08:11:13;8.30;99.90
9215;DHT22;4642;51.364;6.788;2023-03-26T08:14:03;8.30;99.90
9215;DHT22;4642;51.364;6.788;2023-03-26T08:16:49;8.30;99.90
9215;DHT22;4642;51.364;6.788;2023-03-26T08:22:18;8.40;99.90
9215;DHT22;4642;51.364;6.788;2023-03-26T08:30:24;8.40;99.90
9215;DHT22;4642;51.364;6.788;2023-03-26T08:35:20;8.40;99.90
9215;DHT22;4642;51.364;6.788;2023-03-26T08:37:46;8.40;99.90
9215;DHT22;4642;51.364;6.788;2023-03-26T08:40:17;8.50;99.90
9215;DHT22;4642;51.364;6.788;2023-03-26T08:55:06;8.50;99.90
9215;DHT22;4642;51.364;6.788;2023-03-26T08:57:55;8.50;99.90
9215;DHT22;4642;51.364;6.788;2023-03-26T09:12:24;8.60;99.90
9215;DHT22;4642;51.364;6.788;2023-03-26T09:20:43;8.60;99.90
9215;DHT22;4642;51.364;6.788;2023-03-26T09:26:31;8.70;99.90
9215;DHT22;4642;51.364;6.788;2023-03-26T09:30:02;8.70;99.90
9215;DHT22;4642;51.364;6.788;2023-03-26T09:35:20;8.70;99.90
9215;DHT22;4642;51.364;6.788;2023-03-26T09:37:57;8.80;99.90
9215;DHT22;4642;51.364;6.788;2023-03-26T09:40:53;8.80;99.90
9215;DHT22;4642;51.364;6.788;2023-03-26T09:46:58;8.80;99.90
9215;DHT22;4642;51.364;6.788;2023-03-26T09:49:48;8.80;99.90
9215;DHT22;4642;51.364;6.788;2023-03-26T10:06:38;8.70;99.90
9215;DHT22;4642;51.364;6.788;2023-03-26T10:14:51;8.70;99.90
9215;DHT22;4642;51.364;6.788;2023-03-26T10:23:51;8.70;99.90
9215;DHT22;4642;51.364;6.788;2023-03-26T10:26:31;8.60;99.90
9215;DHT22;4642;51.364;6.788;2023-03-26T10:29:30;8.60;99.90
9215;DHT22;4642;51.364;6.788;2023-03-26T10:35:34;8.50;99.90
9215;DHT22;4642;51.364;6.788;2023-03-26T10:41:22;8.40;99.90
9215;DHT22;4642;51.364;6.788;2023-03-26T10:49:34;8.40;99.90
9215;DHT22;4642;51.364;6.788;2023-03-26T10:52:07;8.40;99.90
9215;DHT22;4642;51.364;6.788;2023-03-26T10:55:06;8.40;99.90
9215;DHT22;4642;51.364;6.788;2023-03-26T10:57:52;8.40;99.90
9215;DHT22;4642;51.364;6.788;2023-03-26T11:00:22;8.40;99.90
9215;DHT22;4642;51.364;6.788;2023-03-26T11:05:38;8.50;99.90
9215;DHT22;4642;51.364;6.788;2023-03-26T11:08:31;8.50;99.90
9215;DHT22;4642;51.364;6.788;2023-03-26T11:31:17;9.00;99.90
9215;DHT22;4642;51.364;6.788;2023-03-26T11:33:47;9.00;99.90
9215;DHT22;4642;51.364;6.788;2023-03-26T11:36:25;9.10;99.90
9215;DHT22;4642;51.364;6.788;2023-03-26T11:38:56;8.90;99.90
9215;DHT22;4642;51.364;6.788;2023-03-26T11:41:28;9.00;99.90
9215;DHT22;4642;51.364;6.788;2023-03-26T11:44:02;9.00;99.90
9215;DHT22;4642;51.364;6.788;2023-03-26T11:46:30;9.10;99.90
9215;DHT22;4642;51.364;6.788;2023-03-26T11:48:58;9.00;99.90
9215;DHT22;4642;51.364;6.788;2023-03-26T11:51:29;9.00;99.90
9215;DHT22;4642;51.364;6.788;2023-03-26T11:53:56;9.00;99.90
9215;DHT22;4642;51.364;6.788;2023-03-26T11:56:30;9.00;99.90
9215;DHT22;4642;51.364;6.788;2023-03-26T11:59:00;9.10;99.90
9215;DHT22;4642;51.364;6.788;2023-03-26T12:04:40;9.20;99.90
9215;DHT22;4642;51.364;6.788;2023-03-26T12:07:17;9.20;99.90
9215;DHT22;4642;51.364;6.788;2023-03-26T12:10:06;9.30;99.90
9215;DHT22;4642;51.364;6.788;2023-03-26T12:12:45;9.30;99.90
9215;DHT22;4642;51.364;6.788;2023-03-26T12:15:17;9.30;99.90
9215;DHT22;4642;51.364;6.788;2023-03-26T12:17:44;9.40;99.90
9215;DHT22;4642;51.364;6.788;2023-03-26T12:22:58;9.50;99.90
9215;DHT22;4642;51.364;6.788;2023-03-26T12:25:37;9.50;99.90
9215;DHT22;4642;51.364;6.788;2023-03-26T12:30:39;9.50;99.90
9215;DHT22;4642;51.364;6.788;2023-03-26T12:33:22;9.50;99.90
9215;DHT22;4642;51.364;6.788;2023-03-26T12:35:50;9.60;99.90
9215;DHT22;4642;51.364;6.788;2023-03-26T12:41:10;9.70;99.90
9215;DHT22;4642;51.364;6.788;2023-03-26T12:43:46;9.60;99.90
9215;DHT22;4642;51.364;6.788;2023-03-26T12:46:29;9.70;99.90
9215;DHT22;4642;51.364;6.788;2023-03-26T12:49:01;9.70;99.90
9215;DHT22;4642;51.364;6.788;2023-03-26T12:51:37;9.80;99.90
9215;DHT22;4642;51.364;6.788;2023-03-26T13:10:29;10.00;99.90
9215;DHT22;4642;51.364;6.788;2023-03-26T13:15:37;10.00;99.90
9215;DHT22;4642;51.364;6.788;2023-03-26T13:18:30;10.10;99.90
9215;DHT22;4642;51.364;6.788;2023-03-26T13:27:01;10.30;99.90
9215;DHT22;4642;51.364;6.788;2023-03-26T13:29:38;10.40;99.90
9215;DHT22;4642;51.364;6.788;2023-03-26T13:49:12;10.40;99.90
9215;DHT22;4642;51.364;6.788;2023-03-26T13:54:31;10.40;99.90
9215;DHT22;4642;51.364;6.788;2023-03-26T13:59:43;10.40;99.90
9215;DHT22;4642;51.364;6.788;2023-03-26T14:02:38;10.50;99.90
9215;DHT22;4642;51.364;6.788;2023-03-26T14:05:14;10.60;99.90
9215;DHT22;4642;51.364;6.788;2023-03-26T14:07:54;10.50;99.90
9215;DHT22;4642;51.364;6.788;2023-03-26T14:10:27;10.50;99.90
9215;DHT22;4642;51.364;6.788;2023-03-26T14:13:03;10.50;99.90
9215;DHT22;4642;51.364;6.788;2023-03-26T14:15:37;10.40;99.90
9215;DHT22;4642;51.364;6.788;2023-03-26T14:18:43;10.30;99.90
9215;DHT22;4642;51.364;6.788;2023-03-26T14:30:21;10.10;99.90
9215;DHT22;4642;51.364;6.788;2023-03-26T14:32:56;10.10;99.90
9215;DHT22;4642;51.364;6.788;2023-03-26T14:35:40;10.10;99.90
9215;DHT22;4642;51.364;6.788;2023-03-26T14:39:29;10.10;99.90
9215;DHT22;4642;51.364;6.788;2023-03-26T14:44:12;10.00;99.90
9215;DHT22;4642;51.364;6.788;2023-03-26T14:49:31;9.70;99.90
9215;DHT22;4642;51.364;6.788;2023-03-26T14:52:28;9.60;99.90
9215;DHT22;4642;51.364;6.788;2023-03-26T14:55:00;9.50;99.90
9215;DHT22;4642;51.364;6.788;2023-03-26T15:05:57;9.30;99.90
9215;DHT22;4642;51.364;6.788;2023-03-26T15:16:40;9.10;99.90
9215;DHT22;4642;51.364;6.788;2023-03-26T15:33:37;9.40;99.90
9215;DHT22;4642;51.364;6.788;2023-03-26T15:41:43;9.20;99.90
9215;DHT22;4642;51.364;6.788;2023-03-26T15:47:36;9.30;99.90
9215;DHT22;4642;51.364;6.788;2023-03-26T15:55:51;9.20;99.90
9215;DHT22;4642;51.364;6.788;2023-03-26T15:58:34;9.20;99.90
9215;DHT22;4642;51.364;6.788;2023-03-26T16:01:22;9.20;99.90
9215;DHT22;4642;51.364;6.788;2023-03-26T16:04:12;9.20;99.90
9215;DHT22;4642;51.364;6.788;2023-03-26T16:06:58;9.20;99.90
9215;DHT22;4642;51.364;6.788;2023-03-26T16:12:23;9.00;99.90
9215;DHT22;4642;51.364;6.788;2023-03-26T16:15:14;8.90;99.90
9215;DHT22;4642;51.364;6.788;2023-03-26T16:20:54;8.90;99.90
9215;DHT22;4642;51.364;6.788;2023-03-26T16:23:33;8.90;99.90
9215;DHT22;4642;51.364;6.788;2023-03-26T16:28:59;8.70;99.90
9215;DHT22;4642;51.364;6.788;2023-03-26T16:31:28;8.70;99.90
9215;DHT22;4642;51.364;6.788;2023-03-26T16:36:33;8.60;99.90
9215;DHT22;4642;51.364;6.788;2023-03-26T16:41:31;8.60;99.90
9215;DHT22;4642;51.364;6.788;2023-03-26T16:44:16;8.50;99.90
9215;DHT22;4642;51.364;6.788;2023-03-26T16:52:49;8.40;99.90
9215;DHT22;4642;51.364;6.788;2023-03-26T16:55:40;8.40;99.90
9215;DHT22;4642;51.364;6.788;2023-03-26T16:58:32;8.40;99.90
9215;DHT22;4642;51.364;6.788;2023-03-26T17:03:58;8.30;99.90
9215;DHT22;4642;51.364;6.788;2023-03-26T17:09:46;8.30;99.90
9215;DHT22;4642;51.364;6.788;2023-03-26T17:12:40;8.30;99.90
9215;DHT22;4642;51.364;6.788;2023-03-26T17:15:20;8.20;99.90
9215;DHT22;4642;51.364;6.788;2023-03-26T17:18:02;8.20;99.90
9215;DHT22;4642;51.364;6.788;2023-03-26T17:21:01;8.20;99.90
9215;DHT22;4642;51.364;6.788;2023-03-26T17:29:11;8.10;99.90
9215;DHT22;4642;51.364;6.788;2023-03-26T17:37:24;8.10;99.90
9215;DHT22;4642;51.364;6.788;2023-03-26T17:42:27;8.10;99.90
9215;DHT22;4642;51.364;6.788;2023-03-26T17:45:13;8.10;99.90
9215;DHT22;4642;51.364;6.788;2023-03-26T17:47:44;8.10;99.90
9215;DHT22;4642;51.364;6.788;2023-03-26T17:50:16;8.00;99.90
9215;DHT22;4642;51.364;6.788;2023-03-26T17:53:01;8.00;99.90
9215;DHT22;4642;51.364;6.788;2023-03-26T17:55:38;8.00;99.90
9215;DHT22;4642;51.364;6.788;2023-03-26T17:58:34;8.00;99.90
9215;DHT22;4642;51.364;6.788;2023-03-26T18:01:26;7.90;99.90
9215;DHT22;4642;51.364;6.788;2023-03-26T18:03:55;7.90;99.90
9215;DHT22;4642;51.364;6.788;2023-03-26T18:06:46;7.90;99.90
9215;DHT22;4642;51.364;6.788;2023-03-26T18:14:48;7.90;99.90
9215;DHT22;4642;51.364;6.788;2023-03-26T18:17:20;7.80;99.90
9215;DHT22;4642;51.364;6.788;2023-03-26T18:19:52;7.70;99.90
9215;DHT22;4642;51.364;6.788;2023-03-26T18:22:22;7.70;99.90
9215;DHT22;4642;51.364;6.788;2023-03-26T18:24:49;7.70;99.90
9215;DHT22;4642;51.364;6.788;2023-03-26T18:27:20;7.70;99.90
9215;DHT22;4642;51.364;6.788;2023-03-26T18:32:22;7.70;99.90
9215;DHT22;4642;51.364;6.788;2023-03-26T18:35:00;7.60;99.90
9215;DHT22;4642;51.364;6.788;2023-03-26T18:37:32;7.60;99.90
9215;DHT22;4642;51.364;6.788;2023-03-26T18:40:07;7.60;99.90
9215;DHT22;4642;51.364;6.788;2023-03-26T18:42:43;7.50;99.90
9215;DHT22;4642;51.364;6.788;2023-03-26T18:47:48;7.50;99.90
9215;DHT22;4642;51.364;6.788;2023-03-26T18:50:18;7.50;99.90
9215;DHT22;4642;51.364;6.788;2023-03-26T18:52:46;7.40;99.90
9215;DHT22;4642;51.364;6.788;2023-03-26T18:55:13;7.40;99.90
9215;DHT22;4642;51.364;6.788;2023-03-26T18:57:40;7.40;99.90
9215;DHT22;4642;51.364;6.788;2023-03-26T19:00:26;7.40;99.90
9215;DHT22;4642;51.364;6.788;2023-03-26T19:03:02;7.30;99.90
9215;DHT22;4642;51.364;6.788;2023-03-26T19:05:29;7.30;99.90
9215;DHT22;4642;51.364;6.788;2023-03-26T19:07:58;7.30;99.90
9215;DHT22;4642;51.364;6.788;2023-03-26T19:10:24;7.30;99.90
9215;DHT22;4642;51.364;6.788;2023-03-26T19:13:00;7.30;99.90
9215;DHT22;4642;51.364;6.788;2023-03-26T19:15:32;7.20;99.90
9215;DHT22;4642;51.364;6.788;2023-03-26T19:18:01;7.20;99.90
9215;DHT22;4642;51.364;6.788;2023-03-26T19:20:44;7.20;99.90
9215;DHT22;4642;51.364;6.788;2023-03-26T19:23:20;7.10;99.90
9215;DHT22;4642;51.364;6.788;2023-03-26T19:25:52;7.20;99.90
9215;DHT22;4642;51.364;6.788;2023-03-26T19:28:29;7.10;99.90
9215;DHT22;4642;51.364;6.788;2023-03-26T19:31:22;7.10;99.90
9215;DHT22;4642;51.364;6.788;2023-03-26T19:34:00;7.10;99.90
9215;DHT22;4642;51.364;6.788;2023-03-26T19:36:30;7.00;99.90
9215;DHT22;4642;51.364;6.788;2023-03-26T19:39:09;7.00;99.90
9215;DHT22;4642;51.364;6.788;2023-03-26T19:41:38;7.00;99.90
9215;DHT22;4642;51.364;6.788;2023-03-26T19:44:23;7.00;99.90
9215;DHT22;4642;51.364;6.788;2023-03-26T19:46:50;6.90;99.90
9215;DHT22;4642;51.364;6.788;2023-03-26T19:49:28;6.90;99.90
9215;DHT22;4642;51.364;6.788;2023-03-26T19:52:10;6.90;99.90
9215;DHT22;4642;51.364;6.788;2023-03-26T19:55:00;6.90;99.90
9215;DHT22;4642;51.364;6.788;2023-03-26T19:57:31;6.90;99.90
9215;DHT22;4642;51.364;6.788;2023-03-26T19:59:57;6.80;99.90
9215;DHT22;4642;51.364;6.788;2023-03-26T20:02:24;6.90;99.90
9215;DHT22;4642;51.364;6.788;2023-03-26T20:04:50;6.80;99.90
9215;DHT22;4642;51.364;6.788;2023-03-26T20:07:21;6.80;99.90
9215;DHT22;4642;51.364;6.788;2023-03-26T20:09:52;6.80;99.90
9215;DHT22;4642;51.364;6.788;2023-03-26T20:12:17;6.70;99.90
9215;DHT22;4642;51.364;6.788;2023-03-26T20:14:43;6.70;99.90
9215;DHT22;4642;51.364;6.788;2023-03-26T20:17:15;6.70;99.90
9215;DHT22;4642;51.364;6.788;2023-03-26T20:19:44;6.70;99.90
9215;DHT22;4642;51.364;6.788;2023-03-26T20:22:20;6.60;99.90
9215;DHT22;4642;51.364;6.788;2023-03-26T20:24:46;6.60;99.90
9215;DHT22;4642;51.364;6.788;2023-03-26T20:27:12;6.60;99.90
9215;DHT22;4642;51.364;6.788;2023-03-26T20:29:39;6.60;99.90
9215;DHT22;4642;51.364;6.788;2023-03-26T20:32:16;6.60;99.90
9215;DHT22;4642;51.364;6.788;2023-03-26T20:34:42;6.50;99.90
9215;DHT22;4642;51.364;6.788;2023-03-26T20:37:08;6.50;99.90
9215;DHT22;4642;51.364;6.788;2023-03-26T20:39:34;6.50;99.90
9215;DHT22;4642;51.364;6.788;2023-03-26T20:42:00;6.40;99.90
9215;DHT22;4642;51.364;6.788;2023-03-26T20:44:26;6.40;99.90
9215;DHT22;4642;51.364;6.788;2023-03-26T20:46:52;6.40;99.90
9215;DHT22;4642;51.364;6.788;2023-03-26T20:49:18;6.30;99.90
9215;DHT22;4642;51.364;6.788;2023-03-26T20:51:46;6.30;99.90
9215;DHT22;4642;51.364;6.788;2023-03-26T20:54:22;6.30;99.90
9215;DHT22;4642;51.364;6.788;2023-03-26T20:56:49;6.20;99.90
9215;DHT22;4642;51.364;6.788;2023-03-26T20:59:20;6.20;99.90
9215;DHT22;4642;51.364;6.788;2023-03-26T21:01:47;6.20;99.90
9215;DHT22;4642;51.364;6.788;2023-03-26T21:04:13;6.20;99.90
9215;DHT22;4642;51.364;6.788;2023-03-26T21:06:38;6.10;99.90
9215;DHT22;4642;51.364;6.788;2023-03-26T21:09:04;6.10;99.90
9215;DHT22;4642;51.364;6.788;2023-03-26T21:11:49;6.10;99.90
9215;DHT22;4642;51.364;6.788;2023-03-26T21:14:19;6.10;99.90
9215;DHT22;4642;51.364;6.788;2023-03-26T21:16:46;6.10;99.90
9215;DHT22;4642;51.364;6.788;2023-03-26T21:19:12;6.00;99.90
9215;DHT22;4642;51.364;6.788;2023-03-26T21:27:32;5.90;99.90
9215;DHT22;4642;51.364;6.788;2023-03-26T21:30:01;5.80;99.90
9215;DHT22;4642;51.364;6.788;2023-03-26T21:32:30;5.80;99.90
9215;DHT22;4642;51.364;6.788;2023-03-26T21:34:56;5.80;99.90
9215;DHT22;4642;51.364;6.788;2023-03-26T21:37:22;5.80;99.90
9215;DHT22;4642;51.364;6.788;2023-03-26T21:39:47;5.80;99.90
9215;DHT22;4642;51.364;6.788;2023-03-26T21:42:13;5.70;99.90
9215;DHT22;4642;51.364;6.788;2023-03-26T21:44:39;5.70;99.90
9215;DHT22;4642;51.364;6.788;2023-03-26T21:47:05;5.60;99.90
9215;DHT22;4642;51.364;6.788;2023-03-26T21:49:34;5.60;99.90
9215;DHT22;4642;51.364;6.788;2023-03-26T21:52:01;5.50;99.90
9215;DHT22;4642;51.364;6.788;2023-03-26T21:54:31;5.40;99.90
9215;DHT22;4642;51.364;6.788;2023-03-26T21:57:41;5.40;99.90
9215;DHT22;4642;51.364;6.788;2023-03-26T22:00:11;5.30;99.90
9215;DHT22;4642;51.364;6.788;2023-03-26T22:05:18;5.20;99.90